createdAt,value
2023-04-04T00:01:44.770Z,102575.22
2023-04-04T00:04:11.530Z,102578.25
2023-04-04T00:06:38.119Z,102581.91
2023-04-04T00:09:04.574Z,102578.25
2023-04-04T00:11:31.199Z,102574.19
2023-04-04T00:13:58.018Z,102575.13
2023-04-04T00:16:24.631Z,102575.44
2023-04-04T00:18:51.112Z,102580.91
2023-04-04T00:21:17.986Z,102585.03
2023-04-04T00:23:44.766Z,102577.13
2023-04-04T00:26:11.200Z,102589.19
2023-04-04T00:28:37.950Z,102585.75
2023-04-04T00:31:04.547Z,102588.50
2023-04-04T00:33:31.087Z,102585.75
2023-04-04T00:35:57.676Z,102593.97
2023-04-04T00:38:24.160Z,102582.31
2023-04-04T00:40:51.500Z,102586.16
2023-04-04T00:43:18.780Z,102581.09
2023-04-04T00:45:46.289Z,102590.94
2023-04-04T00:48:13.254Z,102584.13
2023-04-04T00:50:40.041Z,102573.00
2023-04-04T00:53:06.784Z,102576.81
2023-04-04T00:55:33.780Z,102568.59
2023-04-04T00:58:00.582Z,102570.34
2023-04-04T01:00:27.525Z,102576.81
2023-04-04T01:05:20.624Z,102578.84
2023-04-04T01:07:47.385Z,102571.56
2023-04-04T01:10:13.845Z,102570.94
2023-04-04T01:12:42.403Z,102575.31
2023-04-04T01:15:09.392Z,102569.63
2023-04-04T01:17:36.397Z,102568.31
2023-04-04T01:20:11.138Z,102577.03
2023-04-04T01:22:38.888Z,102571.13
2023-04-04T01:25:07.080Z,102571.13
2023-04-04T01:27:34.282Z,102565.53
2023-04-04T01:30:01.182Z,102565.25
2023-04-04T01:32:34.536Z,102560.19
2023-04-04T01:35:32.278Z,102571.72
2023-04-04T01:38:17.652Z,102562.63
2023-04-04T01:41:01.300Z,102552.69
2023-04-04T01:43:30.141Z,102561.19
2023-04-04T01:45:58.156Z,102551.22
2023-04-04T01:48:24.684Z,102552.56
2023-04-04T01:50:51.199Z,102560.75
2023-04-04T01:53:17.986Z,102547.75
2023-04-04T01:55:44.799Z,102559.72
2023-04-04T01:58:11.380Z,102553.75
2023-04-04T02:00:37.936Z,102548.34
2023-04-04T02:03:04.543Z,102547.56
2023-04-04T02:05:31.008Z,102549.28
2023-04-04T02:07:57.831Z,102547.75
2023-04-04T02:10:24.311Z,102548.63
2023-04-04T02:12:53.262Z,102551.34
2023-04-04T02:15:19.713Z,102550.03
2023-04-04T02:17:49.488Z,102552.38
2023-04-04T02:20:17.816Z,102550.25
2023-04-04T02:22:50.914Z,102552.78
2023-04-04T02:25:17.408Z,102549.81
2023-04-04T02:27:43.829Z,102547.38
2023-04-04T02:30:10.900Z,102544.34
2023-04-04T02:32:38.242Z,102548.50
2023-04-04T02:35:05.168Z,102550.94
2023-04-04T02:37:31.876Z,102551.13
2023-04-04T02:39:58.296Z,102541.63
2023-04-04T02:42:24.767Z,102549.31
2023-04-04T02:44:51.271Z,102539.88
2023-04-04T02:47:17.929Z,102545.91
2023-04-04T02:49:44.343Z,102549.19
2023-04-04T02:52:10.803Z,102549.09
2023-04-04T02:54:37.415Z,102550.28
2023-04-04T02:57:04.783Z,102540.47
2023-04-04T02:59:31.392Z,102543.88
2023-04-04T03:01:57.948Z,102540.91
2023-04-04T03:04:24.478Z,102546.38
2023-04-04T03:06:50.924Z,102536.63
2023-04-04T03:09:17.384Z,102532.38
2023-04-04T03:11:44.129Z,102532.38
2023-04-04T03:14:10.658Z,102529.19
2023-04-04T03:16:37.392Z,102542.53
2023-04-04T03:19:03.868Z,102542.63
2023-04-04T03:21:30.318Z,102539.91
2023-04-04T03:23:56.791Z,102524.69
2023-04-04T03:26:23.377Z,102520.34
2023-04-04T03:28:49.862Z,102528.75
2023-04-04T03:31:16.591Z,102524.41
2023-04-04T03:33:43.476Z,102523.56
2023-04-04T03:36:13.504Z,102518.34
2023-04-04T03:38:40.382Z,102517.75
2023-04-04T03:41:08.238Z,102516.16
2023-04-04T03:43:35.236Z,102513.72
2023-04-04T03:46:02.675Z,102515.91
2023-04-04T03:48:29.935Z,102513.47
2023-04-04T03:50:59.802Z,102520.09
2023-04-04T03:53:26.999Z,102510.91
2023-04-04T03:55:56.015Z,102525.66
2023-04-04T03:58:22.979Z,102516.44
2023-04-04T04:00:49.545Z,102519.16
2023-04-04T04:03:17.134Z,102522.41
2023-04-04T04:05:43.921Z,102516.88
2023-04-04T04:08:10.765Z,102512.00
2023-04-04T04:10:37.257Z,102508.00
2023-04-04T04:13:04.264Z,102500.41
2023-04-04T04:15:30.891Z,102503.97
2023-04-04T04:17:57.471Z,102508.31
2023-04-04T04:20:24.018Z,102507.81
2023-04-04T04:22:53.344Z,102511.31
2023-04-04T04:25:20.827Z,102512.97
2023-04-04T04:27:47.285Z,102511.03
2023-04-04T04:30:13.940Z,102506.69
2023-04-04T04:32:40.847Z,102501.25
2023-04-04T04:35:08.694Z,102507.28
2023-04-04T04:37:35.137Z,102503.00
2023-04-04T04:40:01.985Z,102501.97
2023-04-04T04:42:29.399Z,102501.13
2023-04-04T04:44:56.342Z,102500.34
2023-04-04T04:47:22.942Z,102499.22
2023-04-04T04:49:49.737Z,102493.78
2023-04-04T04:52:16.267Z,102500.34
2023-04-04T04:54:43.830Z,102497.38
2023-04-04T04:57:10.650Z,102499.91
2023-04-04T04:59:37.257Z,102497.47
2023-04-04T05:02:03.856Z,102505.66
2023-04-04T05:04:30.352Z,102505.94
2023-04-04T05:06:56.807Z,102501.06
2023-04-04T05:09:23.607Z,102511.16
2023-04-04T05:11:50.082Z,102501.06
2023-04-04T05:14:16.502Z,102501.06
2023-04-04T05:16:43.018Z,102505.69
2023-04-04T05:19:09.540Z,102506.81
2023-04-04T05:21:36.362Z,102512.25
2023-04-04T05:24:03.121Z,102509.81
2023-04-04T05:26:29.621Z,102516.91
2023-04-04T05:28:56.277Z,102522.34
2023-04-04T05:31:22.807Z,102524.00
2023-04-04T05:33:49.410Z,102518.53
2023-04-04T05:36:16.111Z,102519.03
2023-04-04T05:38:42.572Z,102524.44
2023-04-04T05:41:09.059Z,102525.78
2023-04-04T05:43:35.658Z,102531.38
2023-04-04T05:46:02.380Z,102533.81
2023-04-04T05:48:28.985Z,102533.75
2023-04-04T05:50:55.639Z,102530.72
2023-04-04T05:53:22.426Z,102527.13
2023-04-04T05:55:55.112Z,102534.19
2023-04-04T05:58:21.593Z,102531.41
2023-04-04T06:00:48.165Z,102539.22
2023-04-04T06:03:14.773Z,102541.34
2023-04-04T06:05:43.700Z,102554.13
2023-04-04T06:08:10.731Z,102558.72
2023-04-04T06:10:37.432Z,102564.66
2023-04-04T06:13:04.100Z,102566.22
2023-04-04T06:15:30.690Z,102561.59
2023-04-04T06:17:57.154Z,102555.00
2023-04-04T06:20:24.225Z,102568.81
2023-04-04T06:22:51.541Z,102560.56
2023-04-04T06:25:18.177Z,102568.31
2023-04-04T06:27:45.402Z,102575.50
2023-04-04T06:30:14.479Z,102581.13
2023-04-04T06:32:40.955Z,102592.09
2023-04-04T06:35:07.993Z,102584.00
2023-04-04T06:37:34.447Z,102588.00
2023-04-04T06:40:00.887Z,102584.25
2023-04-04T06:42:28.162Z,102592.59
2023-04-04T06:44:54.611Z,102587.22
2023-04-04T06:47:21.374Z,102584.00
2023-04-04T06:49:47.911Z,102581.38
2023-04-04T06:52:14.395Z,102586.97
2023-04-04T06:54:41.084Z,102580.28
2023-04-04T06:57:07.533Z,102587.78
2023-04-04T06:59:34.055Z,102587.69
2023-04-04T07:02:00.996Z,102588.69
2023-04-04T07:04:27.610Z,102589.81
2023-04-04T07:06:54.221Z,102597.31
2023-04-04T07:09:28.591Z,102592.75
2023-04-04T07:11:55.467Z,102596.88
2023-04-04T07:14:25.124Z,102587.16
2023-04-04T07:16:52.520Z,102591.06
2023-04-04T07:19:19.116Z,102593.28
2023-04-04T07:21:45.532Z,102591.13
2023-04-04T07:24:12.006Z,102580.34
2023-04-04T07:26:38.481Z,102584.19
2023-04-04T07:29:05.060Z,102582.28
2023-04-04T07:31:32.128Z,102587.53
2023-04-04T07:33:58.771Z,102580.72
2023-04-04T07:36:25.593Z,102582.06
2023-04-04T07:38:52.184Z,102573.22
2023-04-04T07:41:18.639Z,102586.34
2023-04-04T07:43:45.077Z,102584.66
2023-04-04T07:46:12.256Z,102583.56
2023-04-04T07:48:38.775Z,102587.16
2023-04-04T07:51:06.097Z,102584.56
2023-04-04T07:53:32.732Z,102586.25
2023-04-04T07:55:59.177Z,102581.13
2023-04-04T07:58:27.053Z,102570.16
2023-04-04T08:00:53.594Z,102580.03
2023-04-04T08:03:20.389Z,102572.13
2023-04-04T08:05:46.935Z,102569.53
2023-04-04T08:08:13.744Z,102567.16
2023-04-04T08:10:40.474Z,102560.88
2023-04-04T08:13:08.907Z,102574.31
2023-04-04T08:15:35.471Z,102567.69
2023-04-04T08:18:02.672Z,102566.56
2023-04-04T08:20:29.299Z,102570.97
2023-04-04T08:22:56.273Z,102572.25
2023-04-04T08:25:23.183Z,102567.38
2023-04-04T08:27:49.663Z,102570.09
2023-04-04T08:30:16.152Z,102577.53
2023-04-04T08:32:45.763Z,102578.66
2023-04-04T08:35:12.873Z,102573.97
2023-04-04T08:37:43.557Z,102579.25
2023-04-04T08:40:10.546Z,102567.56
2023-04-04T08:42:40.055Z,102576.63
2023-04-04T08:45:09.554Z,102569.47
2023-04-04T08:47:38.529Z,102567.47
2023-04-04T08:50:07.427Z,102570.41
2023-04-04T08:52:35.305Z,102560.28
2023-04-04T08:55:08.231Z,102564.47
2023-04-04T08:57:35.344Z,102560.69
2023-04-04T09:00:06.183Z,102566.09
2023-04-04T09:02:50.187Z,102562.72
2023-04-04T09:05:17.567Z,102564.59
2023-04-04T09:07:44.264Z,102564.53
2023-04-04T09:10:11.864Z,102562.25
2023-04-04T09:12:41.842Z,102561.25
2023-04-04T09:15:09.870Z,102560.94
2023-04-04T09:17:37.497Z,102552.81
2023-04-04T09:20:24.383Z,102567.44
2023-04-04T09:22:50.870Z,102566.09
2023-04-04T09:25:17.303Z,102556.47
2023-04-04T09:27:45.373Z,102545.84
2023-04-04T09:30:12.309Z,102540.78
2023-04-04T09:32:38.837Z,102559.06
2023-04-04T09:35:06.426Z,102555.31
2023-04-04T09:37:32.925Z,102552.91
2023-04-04T09:39:59.782Z,102550.53
2023-04-04T09:42:26.727Z,102552.50
2023-04-04T09:44:56.627Z,102552.06
2023-04-04T09:49:58.048Z,102553.78
2023-04-04T09:52:24.563Z,102552.91
2023-04-04T09:54:58.842Z,102550.34
2023-04-04T09:57:30.961Z,102549.41
2023-04-04T09:59:59.728Z,102544.34
2023-04-04T10:02:27.450Z,102545.94
2023-04-04T10:05:05.219Z,102533.50
2023-04-04T10:07:34.040Z,102543.16
2023-04-04T10:10:06.614Z,102534.34
2023-04-04T10:12:33.123Z,102538.75
2023-04-04T10:15:00.669Z,102529.31
2023-04-04T10:17:36.263Z,102523.97
2023-04-04T10:20:09.108Z,102526.59
2023-04-04T10:22:37.229Z,102527.59
2023-04-04T10:25:05.586Z,102518.50
2023-04-04T10:27:32.822Z,102506.91
2023-04-04T10:30:00.537Z,102517.84
2023-04-04T10:32:32.291Z,102509.53
2023-04-04T10:35:10.817Z,102513.03
2023-04-04T10:37:59.371Z,102506.75
2023-04-04T10:40:35.895Z,102503.53
2023-04-04T10:43:06.816Z,102510.06
2023-04-04T10:45:36.250Z,102501.25
2023-04-04T10:48:04.114Z,102503.41
2023-04-04T10:50:33.188Z,102500.44
2023-04-04T10:53:02.216Z,102495.97
2023-04-04T10:55:29.531Z,102487.66
2023-04-04T10:57:56.941Z,102487.91
2023-04-04T11:00:24.270Z,102483.03
2023-04-04T11:02:59.334Z,102476.78
2023-04-04T11:05:25.921Z,102473.44
2023-04-04T11:10:36.154Z,102469.56
2023-04-04T11:13:13.793Z,102476.22
2023-04-04T11:16:00.895Z,102466.41
2023-04-04T11:18:39.302Z,102474.75
2023-04-04T11:21:10.522Z,102464.72
2023-04-04T11:23:49.324Z,102463.97
2023-04-04T11:26:35.237Z,102466.69
2023-04-04T11:29:08.238Z,102459.53
2023-04-04T11:31:47.868Z,102458.16
2023-04-04T11:34:16.425Z,102457.06
2023-04-04T11:36:44.950Z,102456.41
2023-04-04T11:39:30.978Z,102445.81
2023-04-04T11:42:14.134Z,102449.41
2023-04-04T11:44:43.081Z,102448.72
2023-04-04T11:47:11.084Z,102440.44
2023-04-04T11:49:42.382Z,102440.31
2023-04-04T11:52:14.025Z,102444.88
2023-04-04T11:54:42.608Z,102441.09
2023-04-04T11:57:12.718Z,102443.50
2023-04-04T11:59:41.368Z,102454.03
2023-04-04T12:02:09.824Z,102440.63
2023-04-04T12:04:37.840Z,102444.69
2023-04-04T12:07:07.643Z,102441.25
2023-04-04T12:09:34.706Z,102438.38
2023-04-04T12:12:01.296Z,102429.28
2023-04-04T12:14:27.928Z,102421.41
2023-04-04T12:16:56.609Z,102419.56
2023-04-04T12:19:24.493Z,102410.34
2023-04-04T12:21:52.678Z,102402.06
2023-04-04T12:24:20.124Z,102400.53
2023-04-04T12:26:49.875Z,102391.66
2023-04-04T12:29:18.525Z,102401.81
2023-04-04T12:31:46.954Z,102397.47
2023-04-04T12:34:24.495Z,102391.44
2023-04-04T12:36:58.373Z,102394.25
2023-04-04T12:39:29.879Z,102398.56
2023-04-04T12:42:03.648Z,102382.69
2023-04-04T12:44:35.918Z,102381.31
2023-04-04T12:47:07.538Z,102370.53
2023-04-04T12:49:42.993Z,102369.53
2023-04-04T12:52:23.381Z,102367.78
2023-04-04T12:55:06.666Z,102368.72
2023-04-04T12:57:35.914Z,102353.09
2023-04-04T13:00:04.576Z,102358.88
2023-04-04T13:02:31.167Z,102360.47
2023-04-04T13:05:00.106Z,102350.63
2023-04-04T13:07:29.252Z,102341.16
2023-04-04T13:09:59.071Z,102349.09
2023-04-04T13:12:27.044Z,102341.94
2023-04-04T13:15:11.671Z,102345.00
2023-04-04T13:17:56.373Z,102337.00
2023-04-04T13:20:24.606Z,102339.47
2023-04-04T13:22:51.932Z,102331.34
2023-04-04T13:25:18.462Z,102322.97
2023-04-04T13:27:44.927Z,102314.34
2023-04-04T13:30:12.001Z,102316.16
2023-04-04T13:32:38.535Z,102289.78
2023-04-04T13:35:05.541Z,102308.22
2023-04-04T13:37:32.055Z,102302.81
2023-04-04T13:39:58.524Z,102292.66
2023-04-04T13:42:30.077Z,102289.47
2023-04-04T13:44:56.768Z,102285.88
2023-04-04T13:47:24.867Z,102292.13
2023-04-04T13:49:51.407Z,102275.50
2023-04-04T13:52:17.908Z,102278.66
2023-04-04T13:54:44.339Z,102280.09
2023-04-04T13:57:11.130Z,102276.03
2023-04-04T13:59:37.654Z,102288.41
2023-04-04T14:02:04.562Z,102269.59
2023-04-04T14:04:31.163Z,102263.13
2023-04-04T14:06:57.766Z,102265.53
2023-04-04T14:09:24.466Z,102263.75
2023-04-04T14:11:50.938Z,102265.75
2023-04-04T14:14:17.556Z,102250.34
2023-04-04T14:16:44.037Z,102252.22
2023-04-04T14:19:10.714Z,102251.91
2023-04-04T14:21:37.180Z,102255.63
2023-04-04T14:24:04.063Z,102251.63
2023-04-04T14:26:30.751Z,102248.28
2023-04-04T14:28:57.800Z,102244.47
2023-04-04T14:31:24.480Z,102241.81
2023-04-04T14:33:51.118Z,102235.28
2023-04-04T14:36:21.717Z,102228.28
2023-04-04T14:38:48.307Z,102226.00
2023-04-04T14:41:16.158Z,102228.59
2023-04-04T14:43:43.493Z,102223.53
2023-04-04T14:46:09.997Z,102224.47
2023-04-04T14:48:36.550Z,102217.59
2023-04-04T14:51:03.067Z,102219.22
2023-04-04T14:53:30.145Z,102213.66
2023-04-04T14:55:56.659Z,102208.97
2023-04-04T14:58:23.193Z,102214.81
2023-04-04T15:00:49.710Z,102212.88
2023-04-04T15:03:16.528Z,102199.50
2023-04-04T15:05:43.432Z,102199.50
2023-04-04T15:08:10.193Z,102199.50
2023-04-04T15:10:36.691Z,102200.44
2023-04-04T15:13:03.236Z,102200.09
2023-04-04T15:15:29.701Z,102197.72
2023-04-04T15:17:56.234Z,102193.34
2023-04-04T15:20:27.510Z,102188.66
2023-04-04T15:22:54.488Z,102182.69
2023-04-04T15:25:20.981Z,102185.50
2023-04-04T15:27:47.458Z,102184.72
2023-04-04T15:30:14.331Z,102191.50
2023-04-04T15:32:40.951Z,102184.31
2023-04-04T15:35:16.660Z,102168.00
2023-04-04T15:37:43.119Z,102171.97
2023-04-04T15:40:10.840Z,102168.78
2023-04-04T15:42:37.713Z,102180.69
2023-04-04T15:45:04.696Z,102171.47
2023-04-04T15:47:31.337Z,102170.66
2023-04-04T15:49:57.880Z,102166.19
2023-04-04T15:52:24.364Z,102176.09
2023-04-04T15:54:51.131Z,102174.81
2023-04-04T15:57:17.605Z,102159.56
2023-04-04T15:59:46.834Z,102159.38
2023-04-04T16:02:14.182Z,102165.66
2023-04-04T16:04:40.866Z,102168.75
2023-04-04T16:07:07.404Z,102157.97
2023-04-04T16:09:33.917Z,102155.94
2023-04-04T16:12:02.269Z,102156.72
2023-04-04T16:14:29.170Z,102167.41
2023-04-04T16:16:55.693Z,102155.84
2023-04-04T16:19:22.192Z,102156.59
2023-04-04T16:21:49.271Z,102157.47
2023-04-04T16:24:15.807Z,102147.56
2023-04-04T16:26:47.288Z,102152.78
2023-04-04T16:29:16.428Z,102150.75
2023-04-04T16:31:43.060Z,102136.81
2023-04-04T16:34:09.613Z,102150.31
2023-04-04T16:36:36.158Z,102141.09
2023-04-04T16:39:02.778Z,102145.41
2023-04-04T16:41:29.292Z,102135.84
2023-04-04T16:43:55.932Z,102128.59
2023-04-04T16:46:22.422Z,102130.63
2023-04-04T16:48:48.872Z,102123.03
2023-04-04T16:51:15.330Z,102122.59
2023-04-04T16:53:41.791Z,102119.41
2023-04-04T16:56:08.354Z,102112.59
2023-04-04T16:58:34.806Z,102109.44
2023-04-04T17:01:01.676Z,102109.38
2023-04-04T17:03:28.265Z,102118.88
2023-04-04T17:05:59.635Z,102107.25
2023-04-04T17:08:26.607Z,102115.19
2023-04-04T17:10:53.148Z,102115.81
2023-04-04T17:13:19.737Z,102115.34
2023-04-04T17:15:47.225Z,102114.41
2023-04-04T17:18:13.888Z,102111.94
2023-04-04T17:20:42.607Z,102109.84
2023-04-04T17:23:10.083Z,102114.47
2023-04-04T17:25:36.680Z,102110.41
2023-04-04T17:28:04.412Z,102099.97
2023-04-04T17:30:31.246Z,102106.53
2023-04-04T17:32:57.841Z,102112.38
2023-04-04T17:35:24.442Z,102107.78
2023-04-04T17:37:50.887Z,102112.47
2023-04-04T17:40:17.892Z,102104.84
2023-04-04T17:42:44.534Z,102102.34
2023-04-04T17:45:11.732Z,102103.72
2023-04-04T17:47:38.443Z,102106.00
2023-04-04T17:50:05.543Z,102107.13
2023-04-04T17:52:32.035Z,102109.69
2023-04-04T17:54:58.627Z,102109.50
2023-04-04T17:57:25.108Z,102101.47
2023-04-04T17:59:51.865Z,102108.94
2023-04-04T18:02:18.799Z,102098.47
2023-04-04T18:04:47.169Z,102100.38
2023-04-04T18:07:14.364Z,102107.75
2023-04-04T18:09:41.195Z,102107.69
2023-04-04T18:12:07.933Z,102112.38
2023-04-04T18:14:34.402Z,102106.34
2023-04-04T18:17:00.935Z,102109.75
2023-04-04T18:19:27.378Z,102093.72
2023-04-04T18:21:59.555Z,102103.06
2023-04-04T18:24:27.971Z,102098.19
2023-04-04T18:26:54.748Z,102098.78
2023-04-04T18:29:21.321Z,102093.91
2023-04-04T18:31:47.809Z,102107.59
2023-04-04T18:34:16.543Z,102103.78
2023-04-04T18:36:43.611Z,102104.97
2023-04-04T18:39:10.110Z,102107.56
2023-04-04T18:41:37.432Z,102097.16
2023-04-04T18:44:03.931Z,102103.75
2023-04-04T18:46:30.496Z,102100.41
2023-04-04T18:48:57.000Z,102107.09
2023-04-04T18:51:23.857Z,102103.75
2023-04-04T18:53:50.892Z,102105.28
2023-04-04T18:56:17.394Z,102110.66
2023-04-04T18:58:43.922Z,102097.81
2023-04-04T19:01:11.833Z,102101.31
2023-04-04T19:03:43.174Z,102104.69
2023-04-04T19:06:12.561Z,102109.25
2023-04-04T19:08:40.686Z,102116.66
2023-04-04T19:11:07.328Z,102104.06
2023-04-04T19:13:33.842Z,102111.13
2023-04-04T19:16:00.617Z,102122.00
2023-04-04T19:18:28.470Z,102128.56
2023-04-04T19:20:55.029Z,102125.28
2023-04-04T19:23:21.662Z,102133.03
2023-04-04T19:25:48.181Z,102124.56
2023-04-04T19:28:14.715Z,102130.06
2023-04-04T19:30:42.637Z,102133.63
2023-04-04T19:33:14.512Z,102131.09
2023-04-04T19:35:58.895Z,102133.44
2023-04-04T19:38:25.478Z,102136.88
2023-04-04T19:40:58.839Z,102139.53
2023-04-04T19:43:26.613Z,102136.63
2023-04-04T19:45:57.692Z,102128.00
2023-04-04T19:48:50.049Z,102134.03
2023-04-04T19:51:22.434Z,102129.59
2023-04-04T19:53:51.390Z,102131.09
2023-04-04T19:56:21.281Z,102133.06
2023-04-04T19:58:52.133Z,102119.88
2023-04-04T20:01:24.627Z,102122.75
2023-04-04T20:03:51.280Z,102130.66
2023-04-04T20:06:29.484Z,102123.16
2023-04-04T20:08:58.461Z,102126.47
2023-04-04T20:11:30.029Z,102123.28
2023-04-04T20:14:01.145Z,102126.47
2023-04-04T20:16:29.753Z,102120.88
2023-04-04T20:18:58.593Z,102123.97
2023-04-04T20:21:31.466Z,102117.66
2023-04-04T20:24:08.176Z,102121.22
2023-04-04T20:26:55.442Z,102123.09
2023-04-04T20:29:29.923Z,102128.69
2023-04-04T20:32:07.836Z,102121.03
2023-04-04T20:34:50.205Z,102121.72
2023-04-04T20:37:24.862Z,102116.91
2023-04-04T20:39:56.042Z,102116.44
2023-04-04T20:42:39.875Z,102110.84
2023-04-04T20:45:09.531Z,102110.72
2023-04-04T20:47:48.214Z,102104.31
2023-04-04T20:50:20.753Z,102107.41
2023-04-04T20:52:51.160Z,102107.34
2023-04-04T20:55:18.614Z,102118.72
2023-04-04T20:57:48.613Z,102116.03
2023-04-04T21:00:31.330Z,102117.91
2023-04-04T21:03:00.166Z,102109.44
2023-04-04T21:05:38.764Z,102112.88
2023-04-04T21:08:33.944Z,102112.69
2023-04-04T21:11:00.566Z,102109.91
2023-04-04T21:13:30.623Z,102111.31
2023-04-04T21:16:00.747Z,102106.13
2023-04-04T21:18:30.027Z,102117.09
2023-04-04T21:20:56.531Z,102114.91
2023-04-04T21:23:28.763Z,102113.22
2023-04-04T21:26:04.173Z,102098.34
2023-04-04T21:28:32.841Z,102103.41
2023-04-04T21:31:00.812Z,102107.19
2023-04-04T21:33:27.339Z,102108.25
2023-04-04T21:35:56.109Z,102106.06
2023-04-04T21:38:22.637Z,102105.84
2023-04-04T21:40:49.153Z,102104.47
2023-04-04T21:43:15.629Z,102107.00
2023-04-04T21:45:42.089Z,102091.19
2023-04-04T21:48:08.536Z,102091.72
2023-04-04T21:50:34.979Z,102092.44
2023-04-04T21:53:01.422Z,102091.75
2023-04-04T21:55:27.923Z,102097.47
2023-04-04T21:57:54.367Z,102091.38
2023-04-04T22:00:20.904Z,102092.78
2023-04-04T22:02:47.396Z,102092.50
2023-04-04T22:05:13.914Z,102085.63
2023-04-04T22:07:40.404Z,102084.09
2023-04-04T22:10:09.369Z,102086.25
2023-04-04T22:12:40.018Z,102087.50
2023-04-04T22:15:08.542Z,102087.38
2023-04-04T22:17:36.248Z,102080.03
2023-04-04T22:20:09.306Z,102077.50
2023-04-04T22:22:36.996Z,102094.19
2023-04-04T22:25:04.392Z,102083.28
2023-04-04T22:27:34.159Z,102078.34
2023-04-04T22:30:01.593Z,102069.59
2023-04-04T22:32:28.290Z,102081.28
2023-04-04T22:34:54.800Z,102068.19
2023-04-04T22:37:21.518Z,102070.84
2023-04-04T22:39:51.609Z,102066.56
2023-04-04T22:42:18.651Z,102066.75
2023-04-04T22:44:47.591Z,102071.75
2023-04-04T22:47:14.350Z,102063.47
2023-04-04T22:49:48.182Z,102084.78
2023-04-04T22:52:15.479Z,102081.09
2023-04-04T22:54:42.980Z,102077.88
2023-04-04T22:57:09.703Z,102075.00
2023-04-04T22:59:36.210Z,102070.97
2023-04-04T23:02:02.810Z,102082.09
2023-04-04T23:04:29.845Z,102072.59
2023-04-04T23:06:56.432Z,102073.69
2023-04-04T23:09:22.919Z,102066.94
2023-04-04T23:11:49.460Z,102061.44
2023-04-04T23:14:15.918Z,102072.59
2023-04-04T23:16:42.703Z,102066.75
2023-04-04T23:19:09.136Z,102068.69
2023-04-04T23:21:36.853Z,102068.69
2023-04-04T23:24:06.842Z,102065.13
2023-04-04T23:26:33.763Z,102054.34
2023-04-04T23:29:01.550Z,102058.38
2023-04-04T23:31:28.221Z,102052.38
2023-04-04T23:33:55.554Z,102046.09
2023-04-04T23:36:22.488Z,102043.34
2023-04-04T23:38:48.980Z,102049.63
2023-04-04T23:41:16.253Z,102049.31
2023-04-04T23:43:43.230Z,102036.22
2023-04-04T23:46:10.065Z,102054.34
2023-04-04T23:48:36.833Z,102047.22
2023-04-04T23:51:04.248Z,102042.09
2023-04-04T23:53:30.964Z,102040.94
2023-04-04T23:55:57.500Z,102038.03
2023-04-04T23:58:24.019Z,102030.69
